sensor_id;sensor_type;location;lat;lon;timestamp;pressure;altitude;pressure_sealevel;temperature;humidity
6433;BME280;3249;42.690;23.260;2023-07-31T00:00:07;94014.19;;;20.15;100.00
6433;BME280;3249;42.690;23.260;2023-07-31T00:02:37;94017.94;;;20.04;100.00
6433;BME280;3249;42.690;23.260;2023-07-31T00:05:06;94014.84;;;20.02;100.00
6433;BME280;3249;42.690;23.260;2023-07-31T00:07:35;94013.00;;;20.02;100.00
6433;BME280;3249;42.690;23.260;2023-07-31T00:10:04;94013.78;;;20.03;100.00
6433;BME280;3249;42.690;23.260;2023-07-31T00:12:38;94018.94;;;20.13;100.00
6433;BME280;3249;42.690;23.260;2023-07-31T00:15:07;94018.75;;;20.04;100.00
6433;BME280;3249;42.690;23.260;2023-07-31T00:17:36;94011.16;;;19.84;100.00
6433;BME280;3249;42.690;23.260;2023-07-31T00:20:06;93995.44;;;19.66;100.00
6433;BME280;3249;42.690;23.260;2023-07-31T00:22:36;93991.38;;;19.55;100.00
6433;BME280;3249;42.690;23.260;2023-07-31T00:25:06;93988.34;;;19.43;100.00
6433;BME280;3249;42.690;23.260;2023-07-31T00:27:37;93988.91;;;19.40;100.00
6433;BME280;3249;42.690;23.260;2023-07-31T00:30:11;93976.91;;;19.39;100.00
6433;BME280;3249;42.690;23.260;2023-07-31T00:32:40;93977.91;;;19.43;100.00
6433;BME280;3249;42.690;23.260;2023-07-31T00:35:10;93969.03;;;19.44;100.00
6433;BME280;3249;42.690;23.260;2023-07-31T00:37:39;93970.09;;;19.43;100.00
6433;BME280;3249;42.690;23.260;2023-07-31T00:40:08;93968.56;;;19.37;100.00
6433;BME280;3249;42.690;23.260;2023-07-31T00:42:40;93970.47;;;19.31;100.00
6433;BME280;3249;42.690;23.260;2023-07-31T00:45:09;93961.41;;;19.24;100.00
6433;BME280;3249;42.690;23.260;2023-07-31T00:47:38;93966.63;;;19.24;100.00
6433;BME280;3249;42.690;23.260;2023-07-31T00:50:08;93976.78;;;19.25;100.00
6433;BME280;3249;42.690;23.260;2023-07-31T00:52:38;93970.75;;;19.30;100.00
6433;BME280;3249;42.690;23.260;2023-07-31T00:55:08;93968.34;;;19.33;100.00
6433;BME280;3249;42.690;23.260;2023-07-31T00:57:40;93971.19;;;19.37;100.00
6433;BME280;3249;42.690;23.260;2023-07-31T01:00:12;93969.63;;;19.36;100.00
6433;BME280;3249;42.690;23.260;2023-07-31T01:02:41;93965.13;;;19.41;100.00
6433;BME280;3249;42.690;23.260;2023-07-31T01:05:10;93966.88;;;19.51;100.00
6433;BME280;3249;42.690;23.260;2023-07-31T01:07:44;93959.50;;;19.53;100.00
6433;BME280;3249;42.690;23.260;2023-07-31T01:10:22;93968.97;;;19.49;100.00
6433;BME280;3249;42.690;23.260;2023-07-31T01:12:56;93941.03;;;19.26;100.00
6433;BME280;3249;42.690;23.260;2023-07-31T01:15:26;93957.63;;;19.35;100.00
6433;BME280;3249;42.690;23.260;2023-07-31T01:17:54;93956.09;;;19.34;100.00
6433;BME280;3249;42.690;23.260;2023-07-31T01:20:27;93957.72;;;19.25;100.00
6433;BME280;3249;42.690;23.260;2023-07-31T01:23:22;93954.09;;;19.26;100.00
6433;BME280;3249;42.690;23.260;2023-07-31T01:26:18;93951.59;;;19.11;100.00
6433;BME280;3249;42.690;23.260;2023-07-31T01:28:54;93943.38;;;18.99;100.00
6433;BME280;3249;42.690;23.260;2023-07-31T01:31:25;93946.78;;;18.94;100.00
6433;BME280;3249;42.690;23.260;2023-07-31T01:33:57;93938.00;;;18.85;100.00
6433;BME280;3249;42.690;23.260;2023-07-31T01:36:28;93945.78;;;18.90;100.00
6433;BME280;3249;42.690;23.260;2023-07-31T01:38:59;93948.13;;;18.92;100.00
6433;BME280;3249;42.690;23.260;2023-07-31T01:41:33;93933.78;;;18.89;100.00
6433;BME280;3249;42.690;23.260;2023-07-31T01:44:03;93952.09;;;18.84;100.00
6433;BME280;3249;42.690;23.260;2023-07-31T01:46:31;93936.00;;;18.77;100.00
6433;BME280;3249;42.690;23.260;2023-07-31T01:49:00;93941.00;;;18.74;100.00
6433;BME280;3249;42.690;23.260;2023-07-31T01:51:31;93945.94;;;18.70;100.00
6433;BME280;3249;42.690;23.260;2023-07-31T01:54:01;93950.09;;;18.71;100.00
6433;BME280;3249;42.690;23.260;2023-07-31T01:56:34;93949.56;;;18.74;100.00
6433;BME280;3249;42.690;23.260;2023-07-31T01:59:03;93947.75;;;18.75;100.00
6433;BME280;3249;42.690;23.260;2023-07-31T02:01:32;93951.38;;;18.79;100.00
6433;BME280;3249;42.690;23.260;2023-07-31T02:04:01;93952.44;;;18.78;100.00
6433;BME280;3249;42.690;23.260;2023-07-31T02:06:31;93954.66;;;18.89;100.00
6433;BME280;3249;42.690;23.260;2023-07-31T02:08:59;93958.06;;;18.90;100.00
6433;BME280;3249;42.690;23.260;2023-07-31T02:11:34;93959.06;;;18.94;100.00
6433;BME280;3249;42.690;23.260;2023-07-31T02:14:03;93957.97;;;19.00;100.00
6433;BME280;3249;42.690;23.260;2023-07-31T02:16:32;93958.91;;;19.09;100.00
6433;BME280;3249;42.690;23.260;2023-07-31T02:19:04;93956.03;;;19.10;100.00
6433;BME280;3249;42.690;23.260;2023-07-31T02:21:33;93964.78;;;19.19;100.00
6433;BME280;3249;42.690;23.260;2023-07-31T02:24:02;93960.16;;;19.16;100.00
6433;BME280;3249;42.690;23.260;2023-07-31T02:26:35;93964.00;;;19.24;100.00
6433;BME280;3249;42.690;23.260;2023-07-31T02:29:04;93958.72;;;19.29;100.00
6433;BME280;3249;42.690;23.260;2023-07-31T02:31:33;93966.53;;;19.34;100.00
6433;BME280;3249;42.690;23.260;2023-07-31T02:34:02;93958.69;;;19.34;100.00
6433;BME280;3249;42.690;23.260;2023-07-31T02:36:31;93964.06;;;19.42;100.00
6433;BME280;3249;42.690;23.260;2023-07-31T02:39:00;93952.63;;;19.38;100.00
6433;BME280;3249;42.690;23.260;2023-07-31T02:41:30;93967.41;;;19.48;100.00
6433;BME280;3249;42.690;23.260;2023-07-31T02:44:02;93963.75;;;19.49;100.00
6433;BME280;3249;42.690;23.260;2023-07-31T02:46:31;93970.47;;;19.55;100.00
6433;BME280;3249;42.690;23.260;2023-07-31T02:48:59;93972.53;;;19.58;100.00
6433;BME280;3249;42.690;23.260;2023-07-31T02:51:28;93964.19;;;19.56;100.00
6433;BME280;3249;42.690;23.260;2023-07-31T02:53:58;93975.25;;;19.71;100.00
6433;BME280;3249;42.690;23.260;2023-07-31T02:56:27;93973.06;;;19.78;100.00
6433;BME280;3249;42.690;23.260;2023-07-31T02:58:56;93983.97;;;19.85;100.00
6433;BME280;3249;42.690;23.260;2023-07-31T03:01:27;93991.97;;;19.94;100.00
6433;BME280;3249;42.690;23.260;2023-07-31T03:03:56;93993.63;;;19.85;100.00
6433;BME280;3249;42.690;23.260;2023-07-31T03:06:26;93977.53;;;19.78;100.00
6433;BME280;3249;42.690;23.260;2023-07-31T03:08:55;93993.19;;;19.78;100.00
6433;BME280;3249;42.690;23.260;2023-07-31T03:11:24;93988.53;;;19.75;100.00
6433;BME280;3249;42.690;23.260;2023-07-31T03:13:53;93986.63;;;19.80;100.00
6433;BME280;3249;42.690;23.260;2023-07-31T03:16:22;93981.69;;;19.79;100.00
6433;BME280;3249;42.690;23.260;2023-07-31T03:18:55;93998.53;;;19.91;100.00
6433;BME280;3249;42.690;23.260;2023-07-31T03:21:23;93993.06;;;19.88;100.00
6433;BME280;3249;42.690;23.260;2023-07-31T03:23:52;93986.63;;;19.80;100.00
6433;BME280;3249;42.690;23.260;2023-07-31T03:26:21;93986.84;;;19.84;100.00
6433;BME280;3249;42.690;23.260;2023-07-31T03:28:51;93998.94;;;19.98;100.00
6433;BME280;3249;42.690;23.260;2023-07-31T03:31:20;94013.84;;;19.98;100.00
6433;BME280;3249;42.690;23.260;2023-07-31T03:33:49;94001.06;;;19.96;100.00
6433;BME280;3249;42.690;23.260;2023-07-31T03:36:20;94003.63;;;20.01;100.00
6433;BME280;3249;42.690;23.260;2023-07-31T03:38:50;94008.63;;;19.98;100.00
6433;BME280;3249;42.690;23.260;2023-07-31T03:41:19;94002.97;;;19.91;100.00
6433;BME280;3249;42.690;23.260;2023-07-31T03:43:50;94008.97;;;19.91;100.00
6433;BME280;3249;42.690;23.260;2023-07-31T03:46:22;94006.53;;;19.76;100.00
6433;BME280;3249;42.690;23.260;2023-07-31T03:48:51;94013.50;;;19.81;100.00
6433;BME280;3249;42.690;23.260;2023-07-31T03:51:22;94018.81;;;19.76;100.00
6433;BME280;3249;42.690;23.260;2023-07-31T03:53:51;94021.47;;;19.71;100.00
6433;BME280;3249;42.690;23.260;2023-07-31T03:56:20;94015.72;;;19.74;100.00
6433;BME280;3249;42.690;23.260;2023-07-31T03:58:50;94020.09;;;19.78;100.00
6433;BME280;3249;42.690;23.260;2023-07-31T04:01:19;94019.03;;;19.79;100.00
6433;BME280;3249;42.690;23.260;2023-07-31T04:03:48;94025.47;;;19.87;100.00
6433;BME280;3249;42.690;23.260;2023-07-31T04:06:17;94027.66;;;19.80;100.00
6433;BME280;3249;42.690;23.260;2023-07-31T04:08:49;94030.78;;;19.82;100.00
6433;BME280;3249;42.690;23.260;2023-07-31T04:11:17;94031.97;;;19.89;100.00
6433;BME280;3249;42.690;23.260;2023-07-31T04:13:47;94036.88;;;19.96;100.00
6433;BME280;3249;42.690;23.260;2023-07-31T04:16:16;94032.63;;;20.00;100.00
6433;BME280;3249;42.690;23.260;2023-07-31T04:18:49;94034.22;;;20.01;100.00
6433;BME280;3249;42.690;23.260;2023-07-31T04:21:18;94041.25;;;20.00;100.00
6433;BME280;3249;42.690;23.260;2023-07-31T04:23:49;94038.53;;;20.10;100.00
6433;BME280;3249;42.690;23.260;2023-07-31T04:26:21;94036.25;;;20.04;100.00
6433;BME280;3249;42.690;23.260;2023-07-31T04:28:51;94049.78;;;20.11;100.00
6433;BME280;3249;42.690;23.260;2023-07-31T04:31:20;94053.13;;;20.16;100.00
6433;BME280;3249;42.690;23.260;2023-07-31T04:33:49;94047.34;;;20.19;100.00
6433;BME280;3249;42.690;23.260;2023-07-31T04:36:18;94044.22;;;20.17;100.00
6433;BME280;3249;42.690;23.260;2023-07-31T04:38:49;94041.06;;;20.20;100.00
6433;BME280;3249;42.690;23.260;2023-07-31T04:41:19;94032.84;;;20.27;100.00
6433;BME280;3249;42.690;23.260;2023-07-31T04:43:48;94027.06;;;20.30;100.00
6433;BME280;3249;42.690;23.260;2023-07-31T04:46:16;94034.13;;;20.48;100.00
6433;BME280;3249;42.690;23.260;2023-07-31T04:48:45;94038.25;;;20.54;100.00
6433;BME280;3249;42.690;23.260;2023-07-31T04:51:14;94043.91;;;20.61;100.00
6433;BME280;3249;42.690;23.260;2023-07-31T04:53:43;94038.16;;;20.77;100.00
6433;BME280;3249;42.690;23.260;2023-07-31T04:56:16;94027.22;;;20.94;100.00
6433;BME280;3249;42.690;23.260;2023-07-31T04:58:45;94032.09;;;21.00;100.00
6433;BME280;3249;42.690;23.260;2023-07-31T05:01:14;94033.84;;;21.05;100.00
6433;BME280;3249;42.690;23.260;2023-07-31T05:03:42;94036.19;;;21.06;100.00
6433;BME280;3249;42.690;23.260;2023-07-31T05:06:12;94027.41;;;21.16;100.00
6433;BME280;3249;42.690;23.260;2023-07-31T05:08:41;94034.19;;;21.17;100.00
6433;BME280;3249;42.690;23.260;2023-07-31T05:11:09;94009.31;;;21.01;100.00
6433;BME280;3249;42.690;23.260;2023-07-31T05:13:41;94033.25;;;21.08;100.00
6433;BME280;3249;42.690;23.260;2023-07-31T05:16:10;94030.63;;;20.94;100.00
6433;BME280;3249;42.690;23.260;2023-07-31T05:18:40;94029.75;;;20.99;100.00
6433;BME280;3249;42.690;23.260;2023-07-31T05:21:09;94026.00;;;20.86;100.00
6433;BME280;3249;42.690;23.260;2023-07-31T05:23:38;94028.28;;;20.74;100.00
6433;BME280;3249;42.690;23.260;2023-07-31T05:26:07;94031.19;;;20.73;100.00
6433;BME280;3249;42.690;23.260;2023-07-31T05:28:37;94031.75;;;20.70;100.00
6433;BME280;3249;42.690;23.260;2023-07-31T05:31:08;94026.56;;;20.83;100.00
6433;BME280;3249;42.690;23.260;2023-07-31T05:33:37;94039.16;;;21.00;100.00
6433;BME280;3249;42.690;23.260;2023-07-31T05:36:06;94038.09;;;21.01;100.00
6433;BME280;3249;42.690;23.260;2023-07-31T05:38:35;94033.84;;;21.05;100.00
6433;BME280;3249;42.690;23.260;2023-07-31T05:41:04;94042.69;;;21.09;100.00
6433;BME280;3249;42.690;23.260;2023-07-31T05:43:33;94029.72;;;21.17;100.00
6433;BME280;3249;42.690;23.260;2023-07-31T05:46:02;94033.34;;;21.35;100.00
6433;BME280;3249;42.690;23.260;2023-07-31T05:48:35;94030.53;;;21.31;100.00
6433;BME280;3249;42.690;23.260;2023-07-31T05:51:04;94026.09;;;21.32;100.00
6433;BME280;3249;42.690;23.260;2023-07-31T05:53:33;94036.63;;;21.27;100.00
6433;BME280;3249;42.690;23.260;2023-07-31T05:56:06;94036.56;;;21.32;100.00
6433;BME280;3249;42.690;23.260;2023-07-31T05:58:35;94035.59;;;21.28;100.00
6433;BME280;3249;42.690;23.260;2023-07-31T06:01:04;94045.03;;;21.42;100.00
6433;BME280;3249;42.690;23.260;2023-07-31T06:03:36;94039.50;;;21.44;100.00
6433;BME280;3249;42.690;23.260;2023-07-31T06:06:05;94044.44;;;21.59;100.00
6433;BME280;3249;42.690;23.260;2023-07-31T06:08:34;94039.91;;;21.64;100.00
6433;BME280;3249;42.690;23.260;2023-07-31T06:11:03;94054.94;;;21.59;100.00
6433;BME280;3249;42.690;23.260;2023-07-31T06:13:33;94044.38;;;21.64;100.00
6433;BME280;3249;42.690;23.260;2023-07-31T06:16:02;94051.22;;;21.78;100.00
6433;BME280;3249;42.690;23.260;2023-07-31T06:18:32;94043.50;;;21.68;100.00
6433;BME280;3249;42.690;23.260;2023-07-31T06:21:03;94046.06;;;21.87;100.00
6433;BME280;3249;42.690;23.260;2023-07-31T06:23:32;94053.25;;;21.95;100.00
6433;BME280;3249;42.690;23.260;2023-07-31T06:26:02;94059.56;;;21.94;100.00
6433;BME280;3249;42.690;23.260;2023-07-31T06:28:31;94066.63;;;22.07;100.00
6433;BME280;3249;42.690;23.260;2023-07-31T06:31:00;94048.00;;;22.22;100.00
6433;BME280;3249;42.690;23.260;2023-07-31T06:33:29;94063.03;;;22.30;100.00
6433;BME280;3249;42.690;23.260;2023-07-31T06:35:58;94066.50;;;22.39;100.00
6433;BME280;3249;42.690;23.260;2023-07-31T06:38:30;94066.66;;;22.48;100.00
6433;BME280;3249;42.690;23.260;2023-07-31T06:40:59;94055.06;;;22.49;100.00
6433;BME280;3249;42.690;23.260;2023-07-31T06:43:28;94061.59;;;22.24;100.00
6433;BME280;3249;42.690;23.260;2023-07-31T06:45:57;94069.81;;;22.45;100.00
6433;BME280;3249;42.690;23.260;2023-07-31T06:48:26;94062.75;;;22.59;100.00
6433;BME280;3249;42.690;23.260;2023-07-31T06:50:55;94070.13;;;22.92;100.00
6433;BME280;3249;42.690;23.260;2023-07-31T06:53:24;94074.06;;;22.81;100.00
6433;BME280;3249;42.690;23.260;2023-07-31T06:55:55;94073.72;;;22.96;100.00
6433;BME280;3249;42.690;23.260;2023-07-31T06:58:24;94067.03;;;22.90;100.00
6433;BME280;3249;42.690;23.260;2023-07-31T07:00:53;94066.72;;;22.92;100.00
6433;BME280;3249;42.690;23.260;2023-07-31T07:03:23;94064.06;;;22.83;100.00
6433;BME280;3249;42.690;23.260;2023-07-31T07:05:51;94052.50;;;22.71;100.00
6433;BME280;3249;42.690;23.260;2023-07-31T07:08:21;94055.53;;;22.64;100.00
6433;BME280;3249;42.690;23.260;2023-07-31T07:10:50;94061.09;;;22.63;100.00
6433;BME280;3249;42.690;23.260;2023-07-31T07:13:22;94052.66;;;22.52;100.00
6433;BME280;3249;42.690;23.260;2023-07-31T07:15:51;94059.53;;;22.35;100.00
6433;BME280;3249;42.690;23.260;2023-07-31T07:18:20;94063.16;;;22.25;100.00
6433;BME280;3249;42.690;23.260;2023-07-31T07:20:51;94065.47;;;22.27;100.00
6433;BME280;3249;42.690;23.260;2023-07-31T07:23:20;94059.53;;;22.35;100.00
6433;BME280;3249;42.690;23.260;2023-07-31T07:25:49;94062.44;;;22.60;100.00
6433;BME280;3249;42.690;23.260;2023-07-31T07:28:23;94056.72;;;22.31;100.00
6433;BME280;3249;42.690;23.260;2023-07-31T07:30:52;94045.66;;;22.07;100.00
6433;BME280;3249;42.690;23.260;2023-07-31T07:33:24;94048.53;;;22.46;100.00
6433;BME280;3249;42.690;23.260;2023-07-31T07:35:53;94066.09;;;22.73;100.00
6433;BME280;3249;42.690;23.260;2023-07-31T07:38:22;94068.34;;;22.79;100.00
6433;BME280;3249;42.690;23.260;2023-07-31T07:40:51;94057.44;;;22.86;100.00
6433;BME280;3249;42.690;23.260;2023-07-31T07:43:20;94071.81;;;22.88;100.00
6433;BME280;3249;42.690;23.260;2023-07-31T07:45:51;94062.06;;;22.89;100.00
6433;BME280;3249;42.690;23.260;2023-07-31T07:48:22;94067.16;;;23.21;99.22
6433;BME280;3249;42.690;23.260;2023-07-31T07:50:51;94061.56;;;23.22;97.77
6433;BME280;3249;42.690;23.260;2023-07-31T07:53:20;94071.09;;;23.18;93.11
6433;BME280;3249;42.690;23.260;2023-07-31T07:55:49;94078.34;;;23.13;95.54
6433;BME280;3249;42.690;23.260;2023-07-31T07:58:19;94073.97;;;23.08;97.29
6433;BME280;3249;42.690;23.260;2023-07-31T08:00:53;94076.72;;;23.03;98.81
6433;BME280;3249;42.690;23.260;2023-07-31T08:03:23;94068.69;;;22.86;100.00
6433;BME280;3249;42.690;23.260;2023-07-31T08:05:52;94074.81;;;22.95;99.76
6433;BME280;3249;42.690;23.260;2023-07-31T08:08:21;94071.81;;;22.88;98.01
6433;BME280;3249;42.690;23.260;2023-07-31T08:10:50;94065.84;;;22.96;98.47
6433;BME280;3249;42.690;23.260;2023-07-31T08:13:19;94073.19;;;23.08;96.01
6433;BME280;3249;42.690;23.260;2023-07-31T08:15:49;94082.81;;;23.12;95.70
6433;BME280;3249;42.690;23.260;2023-07-31T08:18:21;94083.31;;;23.01;94.14
6433;BME280;3249;42.690;23.260;2023-07-31T08:20:50;94076.22;;;23.01;94.07
6433;BME280;3249;42.690;23.260;2023-07-31T08:23:20;94079.56;;;23.29;92.28
6433;BME280;3249;42.690;23.260;2023-07-31T08:25:49;94076.84;;;23.42;91.92
6433;BME280;3249;42.690;23.260;2023-07-31T08:28:18;94073.53;;;23.28;93.97
6433;BME280;3249;42.690;23.260;2023-07-31T08:30:47;94077.22;;;23.49;90.48
6433;BME280;3249;42.690;23.260;2023-07-31T08:33:19;94079.97;;;23.75;89.58
6433;BME280;3249;42.690;23.260;2023-07-31T08:35:48;94074.53;;;23.93;87.02
6433;BME280;3249;42.690;23.260;2023-07-31T08:38:18;94080.72;;;23.97;85.87
6433;BME280;3249;42.690;23.260;2023-07-31T08:40:47;94082.06;;;23.86;85.94
6433;BME280;3249;42.690;23.260;2023-07-31T08:43:16;94081.81;;;23.96;85.68
6433;BME280;3249;42.690;23.260;2023-07-31T08:45:49;94076.56;;;23.96;84.24
6433;BME280;3249;42.690;23.260;2023-07-31T08:48:23;94069.03;;;24.12;83.58
6433;BME280;3249;42.690;23.260;2023-07-31T08:50:54;94081.72;;;23.79;85.76
6433;BME280;3249;42.690;23.260;2023-07-31T08:53:23;94077.25;;;23.88;84.51
6433;BME280;3249;42.690;23.260;2023-07-31T08:55:53;94079.44;;;24.17;82.18
6433;BME280;3249;42.690;23.260;2023-07-31T08:58:23;94080.44;;;23.99;79.58
6433;BME280;3249;42.690;23.260;2023-07-31T09:00:55;94067.72;;;23.92;79.03
6433;BME280;3249;42.690;23.260;2023-07-31T09:03:28;94049.00;;;23.94;76.53
6433;BME280;3249;42.690;23.260;2023-07-31T09:05:57;94079.44;;;24.25;74.34
6433;BME280;3249;42.690;23.260;2023-07-31T09:08:30;94072.19;;;24.22;78.22
6433;BME280;3249;42.690;23.260;2023-07-31T09:11:00;94075.72;;;24.18;80.69
6433;BME280;3249;42.690;23.260;2023-07-31T09:13:31;94071.94;;;24.58;80.79
6433;BME280;3249;42.690;23.260;2023-07-31T09:16:00;94075.44;;;24.84;76.00
6433;BME280;3249;42.690;23.260;2023-07-31T09:18:52;94065.19;;;24.91;74.75
6433;BME280;3249;42.690;23.260;2023-07-31T09:21:23;94060.44;;;24.37;81.30
6433;BME280;3249;42.690;23.260;2023-07-31T09:23:54;94065.88;;;24.40;81.44
6433;BME280;3249;42.690;23.260;2023-07-31T09:26:30;94063.19;;;24.32;80.62
6433;BME280;3249;42.690;23.260;2023-07-31T09:29:01;94063.41;;;24.52;78.40
6433;BME280;3249;42.690;23.260;2023-07-31T09:31:38;94053.66;;;24.36;79.19
6433;BME280;3249;42.690;23.260;2023-07-31T09:34:11;94056.03;;;24.71;75.09
6433;BME280;3249;42.690;23.260;2023-07-31T09:36:41;94062.09;;;24.97;75.31
6433;BME280;3249;42.690;23.260;2023-07-31T09:39:11;94055.91;;;25.10;72.63
6433;BME280;3249;42.690;23.260;2023-07-31T09:41:47;94054.34;;;25.35;72.28
6433;BME280;3249;42.690;23.260;2023-07-31T09:44:17;94050.59;;;25.53;69.03
6433;BME280;3249;42.690;23.260;2023-07-31T09:46:47;94059.16;;;25.41;66.60
6433;BME280;3249;42.690;23.260;2023-07-31T09:49:18;94068.59;;;25.25;68.57
6433;BME280;3249;42.690;23.260;2023-07-31T09:51:48;94054.50;;;24.87;69.84
6433;BME280;3249;42.690;23.260;2023-07-31T09:54:17;94064.09;;;25.00;72.77
6433;BME280;3249;42.690;23.260;2023-07-31T09:56:47;94048.00;;;24.76;73.36
6433;BME280;3249;42.690;23.260;2023-07-31T09:59:18;94043.28;;;24.39;76.92
6433;BME280;3249;42.690;23.260;2023-07-31T10:01:49;94040.34;;;24.58;73.33
6433;BME280;3249;42.690;23.260;2023-07-31T10:04:24;94037.47;;;24.68;71.33
6433;BME280;3249;42.690;23.260;2023-07-31T10:07:00;94043.66;;;25.06;68.76
6433;BME280;3249;42.690;23.260;2023-07-31T10:09:31;94022.59;;;24.80;68.65
6433;BME280;3249;42.690;23.260;2023-07-31T10:12:02;94039.94;;;25.07;67.62
6433;BME280;3249;42.690;23.260;2023-07-31T10:14:35;94055.25;;;25.39;62.50
6433;BME280;3249;42.690;23.260;2023-07-31T10:17:05;94047.03;;;25.57;61.39
6433;BME280;3249;42.690;23.260;2023-07-31T10:19:39;94034.91;;;25.56;61.15
6433;BME280;3249;42.690;23.260;2023-07-31T10:22:09;94048.75;;;25.53;62.28
6433;BME280;3249;42.690;23.260;2023-07-31T10:24:39;94040.03;;;25.61;60.82
6433;BME280;3249;42.690;23.260;2023-07-31T10:27:08;94037.84;;;25.63;62.68
6433;BME280;3249;42.690;23.260;2023-07-31T10:29:39;94040.66;;;25.50;62.48
6433;BME280;3249;42.690;23.260;2023-07-31T10:32:09;94048.50;;;25.75;58.27
6433;BME280;3249;42.690;23.260;2023-07-31T10:34:43;94042.63;;;25.78;57.06
6433;BME280;3249;42.690;23.260;2023-07-31T10:37:25;94033.91;;;25.86;58.49
6433;BME280;3249;42.690;23.260;2023-07-31T10:40:01;93999.78;;;25.81;57.54
6433;BME280;3249;42.690;23.260;2023-07-31T10:42:33;94031.31;;;26.16;55.54
6433;BME280;3249;42.690;23.260;2023-07-31T10:45:07;94019.63;;;25.96;55.63
6433;BME280;3249;42.690;23.260;2023-07-31T10:47:42;94025.75;;;26.09;54.80
6433;BME280;3249;42.690;23.260;2023-07-31T10:50:22;94038.41;;;26.24;51.37
6433;BME280;3249;42.690;23.260;2023-07-31T10:52:54;94029.66;;;26.03;53.02
6433;BME280;3249;42.690;23.260;2023-07-31T10:55:28;94012.50;;;26.17;54.48
6433;BME280;3249;42.690;23.260;2023-07-31T10:58:06;94024.94;;;26.46;51.65
6433;BME280;3249;42.690;23.260;2023-07-31T11:00:37;94020.56;;;25.83;52.88
6433;BME280;3249;42.690;23.260;2023-07-31T11:03:09;94017.69;;;26.34;50.69
6433;BME280;3249;42.690;23.260;2023-07-31T11:05:51;94008.56;;;26.32;47.80
6433;BME280;3249;42.690;23.260;2023-07-31T11:08:25;93995.69;;;26.51;47.13
6433;BME280;3249;42.690;23.260;2023-07-31T11:11:05;94020.41;;;26.26;48.34
6433;BME280;3249;42.690;23.260;2023-07-31T11:13:46;94011.56;;;26.22;48.03
6433;BME280;3249;42.690;23.260;2023-07-31T11:16:19;94013.72;;;26.28;47.88
6433;BME280;3249;42.690;23.260;2023-07-31T11:18:48;94018.16;;;26.65;44.79
6433;BME280;3249;42.690;23.260;2023-07-31T11:21:22;94012.28;;;26.80;44.99
6433;BME280;3249;42.690;23.260;2023-07-31T11:23:53;94008.16;;;26.71;45.86
6433;BME280;3249;42.690;23.260;2023-07-31T11:26:27;93999.72;;;26.77;46.14
6433;BME280;3249;42.690;23.260;2023-07-31T11:28:56;94012.13;;;26.97;45.84
6433;BME280;3249;42.690;23.260;2023-07-31T11:31:25;94018.00;;;27.03;47.51
6433;BME280;3249;42.690;23.260;2023-07-31T11:34:05;94014.28;;;26.63;52.02
6433;BME280;3249;42.690;23.260;2023-07-31T11:36:37;94011.75;;;26.66;49.54
6433;BME280;3249;42.690;23.260;2023-07-31T11:39:08;94023.84;;;26.47;47.95
6433;BME280;3249;42.690;23.260;2023-07-31T11:41:40;94013.97;;;26.35;48.62
6433;BME280;3249;42.690;23.260;2023-07-31T11:44:09;94007.50;;;26.24;48.60
6433;BME280;3249;42.690;23.260;2023-07-31T11:46:39;94007.59;;;26.36;48.66
6433;BME280;3249;42.690;23.260;2023-07-31T11:49:09;94001.44;;;26.03;50.67
6433;BME280;3249;42.690;23.260;2023-07-31T11:51:40;94008.22;;;25.66;53.55
6433;BME280;3249;42.690;23.260;2023-07-31T11:54:12;93990.28;;;25.51;54.15
6433;BME280;3249;42.690;23.260;2023-07-31T11:56:45;94003.47;;;25.89;53.27
6433;BME280;3249;42.690;23.260;2023-07-31T11:59:15;93994.34;;;26.16;51.77
6433;BME280;3249;42.690;23.260;2023-07-31T12:01:45;93997.81;;;26.08;54.31
6433;BME280;3249;42.690;23.260;2023-07-31T12:04:16;93979.19;;;26.33;54.34
6433;BME280;3249;42.690;23.260;2023-07-31T12:06:55;93996.91;;;26.62;51.91
6433;BME280;3249;42.690;23.260;2023-07-31T12:09:26;93984.03;;;26.52;55.71
6433;BME280;3249;42.690;23.260;2023-07-31T12:11:55;93975.06;;;26.24;57.56
6433;BME280;3249;42.690;23.260;2023-07-31T12:14:25;93984.22;;;25.88;61.19
6433;BME280;3249;42.690;23.260;2023-07-31T12:16:56;93979.75;;;26.18;56.27
6433;BME280;3249;42.690;23.260;2023-07-31T12:19:25;93989.47;;;26.55;52.64
6433;BME280;3249;42.690;23.260;2023-07-31T12:21:59;93966.97;;;26.49;51.93
6433;BME280;3249;42.690;23.260;2023-07-31T12:24:28;93976.63;;;26.86;48.96
6433;BME280;3249;42.690;23.260;2023-07-31T12:26:57;93980.06;;;26.46;48.75
6433;BME280;3249;42.690;23.260;2023-07-31T12:29:34;93980.91;;;26.58;46.62
6433;BME280;3249;42.690;23.260;2023-07-31T12:32:04;93979.63;;;26.85;45.95
6433;BME280;3249;42.690;23.260;2023-07-31T12:34:42;93990.69;;;26.99;44.27
6433;BME280;3249;42.690;23.260;2023-07-31T12:37:13;93978.09;;;26.96;43.68
6433;BME280;3249;42.690;23.260;2023-07-31T12:39:43;93982.53;;;27.04;44.62
6433;BME280;3249;42.690;23.260;2023-07-31T12:42:12;93972.81;;;26.96;45.43
6433;BME280;3249;42.690;23.260;2023-07-31T12:44:41;93965.31;;;26.86;45.97
6433;BME280;3249;42.690;23.260;2023-07-31T12:47:10;93965.31;;;26.65;45.28
6433;BME280;3249;42.690;23.260;2023-07-31T12:49:41;93969.41;;;26.34;48.08
6433;BME280;3249;42.690;23.260;2023-07-31T12:52:13;93969.59;;;26.49;48.14
6433;BME280;3249;42.690;23.260;2023-07-31T12:54:42;93962.56;;;26.12;48.49
6433;BME280;3249;42.690;23.260;2023-07-31T12:57:11;93965.03;;;26.38;50.16
6433;BME280;3249;42.690;23.260;2023-07-31T12:59:39;93957.59;;;26.81;47.45
6433;BME280;3249;42.690;23.260;2023-07-31T13:02:08;93960.56;;;26.79;48.61
6433;BME280;3249;42.690;23.260;2023-07-31T13:04:38;93960.75;;;27.07;47.44
6433;BME280;3249;42.690;23.260;2023-07-31T13:07:06;93962.53;;;27.15;45.36
6433;BME280;3249;42.690;23.260;2023-07-31T13:09:38;93961.56;;;27.19;45.60
6433;BME280;3249;42.690;23.260;2023-07-31T13:12:08;93957.25;;;27.35;44.88
6433;BME280;3249;42.690;23.260;2023-07-31T13:14:37;93967.03;;;27.35;44.13
6433;BME280;3249;42.690;23.260;2023-07-31T13:17:06;93966.03;;;27.27;44.04
6433;BME280;3249;42.690;23.260;2023-07-31T13:19:35;93965.47;;;27.22;44.02
6433;BME280;3249;42.690;23.260;2023-07-31T13:22:04;93968.34;;;27.29;43.15